地図

経路データ

SID SEASON NUMBER BASIN SUBBASIN NAME ISO_TIME NATURE LAT LON WMO_WIND WMO_PRES WMO_AGENCY TRACK_TYPE DIST2LAND LANDFALL IFLAG USA_AGENCY USA_ATCF_ID USA_LAT USA_LON USA_RECORD USA_STATUS USA_WIND USA_PRES USA_SSHS USA_R34_NE USA_R34_SE USA_R34_SW USA_R34_NW USA_R50_NE USA_R50_SE USA_R50_SW USA_R50_NW USA_R64_NE USA_R64_SE USA_R64_SW USA_R64_NW USA_POCI USA_ROCI USA_RMW USA_EYE TOKYO_LAT TOKYO_LON TOKYO_GRADE TOKYO_WIND TOKYO_PRES TOKYO_R50_DIR TOKYO_R50_LONG TOKYO_R50_SHORT TOKYO_R30_DIR TOKYO_R30_LONG TOKYO_R30_SHORT TOKYO_LAND CMA_LAT CMA_LON CMA_CAT CMA_WIND CMA_PRES HKO_LAT HKO_LON HKO_CAT HKO_WIND HKO_PRES NEWDELHI_LAT NEWDELHI_LON NEWDELHI_GRADE NEWDELHI_WIND NEWDELHI_PRES NEWDELHI_CI NEWDELHI_DP NEWDELHI_POCI REUNION_LAT REUNION_LON REUNION_TYPE REUNION_WIND REUNION_PRES REUNION_TNUM REUNION_CI REUNION_RMW REUNION_R34_NE REUNION_R34_SE REUNION_R34_SW REUNION_R34_NW REUNION_R50_NE REUNION_R50_SE REUNION_R50_SW REUNION_R50_NW REUNION_R64_NE REUNION_R64_SE REUNION_R64_SW REUNION_R64_NW BOM_LAT BOM_LON BOM_TYPE BOM_WIND BOM_PRES BOM_TNUM BOM_CI BOM_RMW BOM_R34_NE BOM_R34_SE BOM_R34_SW BOM_R34_NW BOM_R50_NE BOM_R50_SE BOM_R50_SW BOM_R50_NW BOM_R64_NE BOM_R64_SE BOM_R64_SW BOM_R64_NW BOM_ROCI BOM_POCI BOM_EYE BOM_POS_METHOD BOM_PRES_METHOD NADI_LAT NADI_LON NADI_CAT NADI_WIND NADI_PRES WELLINGTON_LAT WELLINGTON_LON WELLINGTON_WIND WELLINGTON_PRES DS824_LAT DS824_LON DS824_STAGE DS824_WIND DS824_PRES TD9636_LAT TD9636_LON TD9636_STAGE TD9636_WIND TD9636_PRES TD9635_LAT TD9635_LON TD9635_WIND TD9635_PRES TD9635_ROCI NEUMANN_LAT NEUMANN_LON NEUMANN_CLASS NEUMANN_WIND NEUMANN_PRES MLC_LAT MLC_LON MLC_CLASS MLC_WIND MLC_PRES USA_GUST BOM_GUST BOM_GUST_PER REUNION_GUST REUNION_GUST_PER USA_SEAHGT USA_SEARAD_NE USA_SEARAD_SE USA_SEARAD_SW USA_SEARAD_NW STORM_SPEED STORM_DIR
1893228N15337 1893 30 NA NA NOT_NAMED 1893-08-15 12:00:00 TS 15.5000 -23.2000 spur-merge 618 618 _____________O -1 15.5000 -23.2000 TD 25 14 270
1893228N15337 1893 30 NA NA NOT_NAMED 1893-08-15 15:00:00 TS 15.5005 -23.9100 spur-merge 693 693 _____________P -1 15.5005 -23.9100 TD 25 14 270
1893228N15337 1893 30 NA NA NOT_NAMED 1893-08-15 18:00:00 TS 15.5000 -24.6000 spur-merge 767 767 _____________O -1 15.5000 -24.6000 TD 25 13 270
1893228N15337 1893 30 NA NA NOT_NAMED 1893-08-15 21:00:00 TS 15.4997 -25.2575 spur-merge 842 842 _____________P -1 15.4997 -25.2575 TD 25 13 270
1893228N15337 1893 30 NA NA NOT_NAMED 1893-08-16 00:00:00 TS 15.5000 -25.9000 spur-merge 906 906 _____________O -1 15.5000 -25.9000 TD 25 12 270
1893228N15337 1893 30 NA NA NOT_NAMED 1893-08-16 03:00:00 TS 15.4998 -26.5500 spur-merge 970 981 _____________P -1 15.4998 -26.5500 TD 27 13 270
1893228N15337 1893 30 NA NA NOT_NAMED 1893-08-16 06:00:00 TS 15.5000 -27.2000 spur-merge 1045 1045 _____________O -1 15.5000 -27.2000 TD 30 13 270
1893228N15337 1893 30 NA NA NOT_NAMED 1893-08-16 09:00:00 TS 15.4923 -27.8501 spur-merge 1120 1120 _____________P -1 15.4923 -27.8501 TD 30 13 270
1893228N15337 1893 30 NA NA NOT_NAMED 1893-08-16 12:00:00 TS 15.5000 -28.5000 spur-merge 1184 1184 _____________O -1 15.5000 -28.5000 TD 30 13 273
1893228N15337 1893 30 NA NA NOT_NAMED 1893-08-16 15:00:00 TS 15.5499 -29.1574 spur-merge 1259 1259 _____________P -1 15.5499 -29.1574 TD 30 13 275
1893228N15337 1893 30 NA NA NOT_NAMED 1893-08-16 18:00:00 TS 15.6000 -29.8000 spur-merge 1324 1324 _____________O -1 15.6000 -29.8000 TD 30 12 273
1893228N15337 1893 30 NA NA NOT_NAMED 1893-08-16 21:00:00 TS 15.6072 -30.4001 spur-merge 1388 1388 _____________P -1 15.6072 -30.4001 TD 32 12 270
1893228N15337 1893 30 NA NA NOT_NAMED 1893-08-17 00:00:00 TS 15.6000 -31.0000 spur-merge 1452 1452 _____________O -1 15.6000 -31.0000 TS 35 12 270
1893228N15337 1893 30 NA NA NOT_NAMED 1893-08-17 03:00:00 TS 15.5999 -31.6500 spur-merge 1517 1517 _____________P -1 15.5999 -31.6500 TS 35 13 270
1893228N15337 1893 30 NA NA NOT_NAMED 1893-08-17 06:00:00 TS 15.6000 -32.3000 spur-merge 1592 1592 _____________O -1 15.6000 -32.3000 TS 35 12 270
1893228N15337 1893 30 NA NA NOT_NAMED 1893-08-17 09:00:00 TS 15.5998 -32.9150 spur-merge 1656 1656 _____________P -1 15.5998 -32.9150 TS 37 12 270
1893228N15337 1893 30 NA NA NOT_NAMED 1893-08-17 12:00:00 TS 15.6000 -33.5000 spur-merge 1720 1720 _____________O -1 15.6000 -33.5000 TS 40 11 269
1893228N15337 1893 30 NA NA NOT_NAMED 1893-08-17 15:00:00 TS 15.5848 -34.0576 spur-merge 1784 1784 _____________P -1 15.5848 -34.0576 TS 42 11 270
1893228N15337 1893 30 NA NA NOT_NAMED 1893-08-17 18:00:00 TS 15.6000 -34.6000 spur-merge 1838 1838 _____________O -1 15.6000 -34.6000 TS 45 11 275
1893228N15337 1893 30 NA NA NOT_NAMED 1893-08-17 21:00:00 TS 15.6774 -35.1500 spur-merge 1892 1892 _____________P -1 15.6774 -35.1500 TS 45 11 281
1893228N15337 1893 30 NA NA NOT_NAMED 1893-08-18 00:00:00 TS 15.8000 -35.7000 spur-merge 1956 1956 _____________O -1 15.8000 -35.7000 TS 45 11 284
1893228N15337 1893 30 NA NA NOT_NAMED 1893-08-18 03:00:00 TS 15.9499 -36.2500 spur-merge 2010 2010 _____________P -1 15.9499 -36.2500 TS 45 11 286
1893228N15337 1893 30 NA NA NOT_NAMED 1893-08-18 06:00:00 TS 16.1000 -36.8000 spur-merge 2063 2029 _____________O -1 16.1000 -36.8000 TS 45 11 283
1893228N15337 1893 30 NA NA NOT_NAMED 1893-08-18 09:00:00 TS 16.1999 -37.3577 spur-merge 2020 1987 _____________P -1 16.1999 -37.3577 TS 47 11 281
1893228N15337 1893 30 NA NA NOT_NAMED 1893-08-18 12:00:00 TS 16.3000 -37.9000 spur-merge 1987 1955 _____________O -1 16.3000 -37.9000 TS 50 10 284
1893228N15337 1893 30 NA NA NOT_NAMED 1893-08-18 15:00:00 TS 16.4498 -38.4000 spur-merge 1955 1931 _____________P -1 16.4498 -38.4000 TS 52 10 287
1893228N15337 1893 30 NA NA NOT_NAMED 1893-08-18 18:00:00 TS 16.6000 -38.9000 spur-merge 1931 1901 _____________O -1 16.6000 -38.9000 TS 55 10 284
1893228N15337 1893 30 NA NA NOT_NAMED 1893-08-18 21:00:00 TS 16.6999 -39.4427 spur-merge 1901 1865 _____________P -1 16.6999 -39.4427 TS 57 11 281
1893228N15337 1893 30 NA NA NOT_NAMED 1893-08-19 00:00:00 TS 16.8000 -40.0000 spur-merge 1865 1838 _____________O -1 16.8000 -40.0000 TS 60 11 283
1893228N15337 1893 30 NA NA NOT_NAMED 1893-08-19 03:00:00 TS 16.9499 -40.5500 spur-merge 1838 1814 _____________P -1 16.9499 -40.5500 TS 60 11 286
1893228N15337 1893 30 NA NA NOT_NAMED 1893-08-19 06:00:00 TS 17.1000 -41.1000 spur-merge 1814 1790 _____________O -1 17.1000 -41.1000 TS 60 11 283
1893228N15337 1893 30 NA NA NOT_NAMED 1893-08-19 09:00:00 TS 17.1999 -41.6577 spur-merge 1784 1761 _____________P -1 17.1999 -41.6577 TS 62 11 281
1893228N15337 1893 30 NA NA NOT_NAMED 1893-08-19 12:00:00 TS 17.3000 -42.2000 spur-merge 1761 1740 _____________O -1 17.3000 -42.2000 HU 65 10 284
1893228N15337 1893 30 NA NA NOT_NAMED 1893-08-19 15:00:00 TS 17.4423 -42.7075 spur-merge 1740 1724 _____________P -1 17.4423 -42.7075 HU 67 10 287
1893228N15337 1893 30 NA NA NOT_NAMED 1893-08-19 18:00:00 TS 17.6000 -43.2000 spur-merge 1724 1702 _____________O -1 17.6000 -43.2000 HU 70 10 289
1893228N15337 1893 30 NA NA NOT_NAMED 1893-08-19 21:00:00 TS 17.7573 -43.6925 spur-merge 1711 1690 _____________P -1 17.7573 -43.6925 HU 72 10 287
1893228N15337 1893 30 NA NA NOT_NAMED 1893-08-20 00:00:00 TS 17.9000 -44.2000 spur-merge 1690 1671 _____________O -1 17.9000 -44.2000 HU 75 10 284
1893228N15337 1893 30 NA NA NOT_NAMED 1893-08-20 03:00:00 TS 17.9999 -44.7427 spur-merge 1671 1648 _____________P -1 18.0104 -44.7399 HU 77 11 281
1893228N15337 1893 30 NA NA NOT_NAMED 1893-08-20 06:00:00 TS 18.1000 -45.3000 spur-merge 1648 _____________O -1 18.1000 -45.3000 HU 80 11 281

IBTrACS Databaseについて

本データベースは、米国NOAAが公開する1842年以降の世界の熱帯低気圧のベストトラックデータアーカイブInternational Best Track Archive for Climate Stewardship (IBTrACS)を、ウェブで閲覧しやすい形式に変換したものです。

最終更新日:2021-12-06